Latest Weather Observations for Maria Island

IDT60901

Issued at 10:11 pm EST Wednesday 28 June 2017 (issued every 10 minutes, with the page automatically refreshed every 10 minutes)

About weather observations | Map of Hobart area stations | Latest observations for Hobart area | Other Formats
Station Details ID: 092124 Name: MARIA ISLAND (POINT LESUEUR) Lat: -42.66 Lon: 148.02 Height: 28.0 m
Data from the previous 72 hours. | See also: Recent months at Maria Island
Date/Time
EST
Temp
°C
App
Temp
°C
Dew
Point
°C
Rel
Hum
%
Delta-T
°C
Wind Press
QNH
hPa
Press
MSL
hPa
Rain since
9am
mm
Dir  Spd
km/h
Gust
km/h
Spd
kts
Gust
kts
28/10:00pm 9.3 4.7 5.7 78 1.6 WNW 19 24 10 13 1017.7 1017.7 0.0
28/09:30pm 9.5 5.3 5.7 77 1.7 WNW 17 20 9 11 1017.9 1017.9 0.0
28/09:00pm 9.7 5.5 5.7 76 1.8 WNW 17 22 9 12 1018.1 1018.1 0.0
28/08:30pm 9.8 6.4 5.8 76 1.8 WNW 13 17 7 9 1018.3 1018.3 0.0
28/08:00pm 9.9 6.2 6.1 77 1.8 NW 15 20 8 11 1018.2 1018.2 0.0
28/07:30pm 9.7 6.7 5.9 77 1.7 WNW 11 15 6 8 1018.3 1018.3 0.0
28/07:00pm 9.8 6.0 5.8 76 1.8 W 15 19 8 10 1018.3 1018.3 0.0
28/06:30pm 9.7 6.0 6.1 78 1.7 WNW 15 19 8 10 1018.2 1018.2 0.0
28/06:00pm 9.7 6.3 5.9 77 1.7 WNW 13 17 7 9 1018.2 1018.2 0.0
28/05:30pm 9.7 6.7 5.9 77 1.7 WNW 11 13 6 7 1018.3 1018.3 0.0
28/05:00pm 10.1 7.8 5.7 74 2.0 WNW 7 9 4 5 1018.3 1018.3 0.0
28/04:30pm 10.6 7.4 5.2 69 2.5 WNW 11 17 6 9 1018.3 1018.3 0.0
28/04:00pm 11.6 8.9 5.5 66 2.8 NNW 9 13 5 7 1018.3 1018.3 0.0
28/03:30pm 11.6 8.2 5.7 67 2.7 N 13 15 7 8 1018.4 1018.4 0.0
28/03:00pm 11.7 8.3 5.8 67 2.7 N 13 15 7 8 1018.5 1018.5 0.0
28/02:30pm 11.7 8.3 6.0 68 2.7 N 13 15 7 8 1018.7 1018.7 0.0
28/02:00pm 11.6 7.5 6.1 69 2.6 N 17 19 9 10 1018.9 1018.9 0.0
28/01:30pm 11.0 7.3 6.4 73 2.2 N 15 17 8 9 1019.0 1019.0 0.0
28/01:00pm 11.0 7.3 6.4 73 2.2 N 15 17 8 9 1019.3 1019.3 0.0
28/12:30pm 10.8 7.0 6.0 72 2.2 N 15 17 8 9 1019.8 1019.8 0.0
28/12:00pm 10.6 6.5 6.0 73 2.1 N 17 19 9 10 1020.1 1020.1 0.0
28/11:30am 10.1 6.3 5.7 74 2.0 N 15 17 8 9 1020.4 1020.4 0.0
28/11:00am 9.1 5.5 4.9 75 1.9 N 13 15 7 8 1020.7 1020.7 0.0
28/10:30am 9.3 5.7 4.9 74 2.0 N 13 17 7 9 1021.2 1021.2 0.0
28/10:00am 9.3 5.8 5.5 77 1.7 N 13 17 7 9 1021.3 1021.3 0.0
28/09:30am 8.6 5.0 5.2 79 1.5 NNW 13 15 7 8 1021.3 1021.3 0.0
28/09:00am 8.3 4.5 5.6 83 1.2 NNW 15 17 8 9 1021.2 1021.2 0.0
28/08:30am 7.6 3.0 5.6 87 0.9 NNW 19 20 10 11 1021.1 1021.1 0.0
28/08:00am 7.5 4.0 5.3 86 1.0 NNE 13 15 7 8 1021.1 1021.1 0.0
28/07:30am 5.9 2.9 4.2 89 0.7 NNE 9 11 5 6 1021.2 1021.2 0.0
28/07:00am 6.0 3.6 4.2 88 0.8 NE 6 9 3 5 1021.2 1021.2 0.0
28/06:30am 6.7 3.8 4.4 85 1.0 N 9 13 5 7 1021.3 1021.3 0.0
28/06:00am 6.8 3.1 4.5 85 1.0 WNW 13 15 7 8 1021.3 1021.3 0.0
28/05:30am 6.4 3.0 4.2 86 0.9 W 11 13 6 7 1021.3 1021.3 0.0
28/05:00am 7.2 3.5 4.7 84 1.1 NW 13 17 7 9 1021.1 1021.1 0.0
28/04:30am 6.9 4.0 4.4 84 1.1 NNW 9 13 5 7 1021.0 1021.0 0.0
28/04:00am 7.0 4.0 4.3 83 1.2 WNW 9 13 5 7 1021.1 1021.1 0.0
28/03:30am 7.1 3.8 4.4 83 1.2 WNW 11 13 6 7 1021.2 1021.2 0.0
28/03:00am 7.1 3.4 4.6 84 1.1 WNW 13 17 7 9 1021.3 1021.3 0.0
28/02:30am 7.2 3.9 4.7 84 1.1 W 11 13 6 7 1021.5 1021.5 0.0
28/02:00am 7.3 3.6 4.3 81 1.3 NW 13 17 7 9 1021.3 1021.3 0.0
28/01:30am 7.2 2.7 4.3 82 1.3 NNW 17 20 9 11 1021.2 1021.2 0.0
28/01:00am 7.2 3.1 4.5 83 1.2 NNW 15 19 8 10 1021.2 1021.2 0.0
28/12:30am 6.6 4.0 4.1 84 1.1 NW 7 11 4 6 1021.4 1021.4 0.0
28/12:00am 7.2 3.5 4.3 82 1.3 NW 13 19 7 10 1021.6 1021.6 0.0
 
Date/Time
EST
Temp
°C
App
Temp
°C
Dew
Point
°C
Rel
Hum
%
Delta-T
°C
Wind Press
QNH
hPa
Press
MSL
hPa
Rain since
9am
mm
Dir  Spd
km/h
Gust
km/h
Spd
kts
Gust
kts
27/11:30pm 7.6 3.2 4.9 83 1.2 NNW 17 20 9 11 1021.8 1021.8 0.0
27/11:00pm 7.5 3.5 4.8 83 1.2 N 15 17 8 9 1021.9 1021.9 0.0
27/10:30pm 6.8 3.8 3.9 82 1.2 NW 9 11 5 6 1022.1 1022.1 0.0
27/10:00pm 7.3 4.2 3.7 78 1.5 WNW 9 13 5 7 1022.2 1022.2 0.0
27/09:30pm 8.3 4.2 4.5 77 1.7 NNW 15 19 8 10 1022.2 1022.2 0.0
27/09:00pm 8.0 3.9 4.6 79 1.5 NW 15 17 8 9 1022.3 1022.3 0.0
27/08:30pm 8.4 5.2 5.2 80 1.4 NNW 11 13 6 7 1022.4 1022.4 0.0
27/08:00pm 8.7 5.8 4.5 75 1.8 NNW 9 11 5 6 1022.4 1022.4 0.0
27/07:30pm 8.1 4.9 5.2 82 1.3 NW 11 13 6 7 1022.4 1022.4 0.0
27/07:00pm 9.2 4.9 3.4 67 2.5 NNW 15 19 8 10 1022.0 1022.0 0.0
27/06:30pm 8.9 6.3 4.1 72 2.1 NNW 7 9 4 5 1021.7 1021.7 0.0
27/06:00pm 9.0 4.8 3.6 69 2.3 NW 15 17 8 9 1021.8 1021.8 0.0
27/05:30pm 9.0 5.2 3.8 70 2.3 NW 13 17 7 9 1021.6 1021.6 0.0
27/05:00pm 9.3 4.7 3.7 68 2.4 NW 17 19 9 10 1021.4 1021.4 0.0
27/04:30pm 9.3 4.2 3.3 66 2.6 NW 19 20 10 11 1021.1 1021.1 0.0
27/04:00pm 9.6 4.0 3.4 65 2.7 NNW 22 26 12 14 1021.0 1021.0 0.0
27/03:30pm 10.0 4.7 3.1 62 3.0 NW 20 24 11 13 1021.0 1021.0 0.0
27/03:00pm 10.2 4.6 3.5 63 2.9 NW 22 26 12 14 1021.1 1021.1 0.0
27/02:30pm 10.5 3.8 3.5 62 3.1 NW 28 32 15 17 1021.0 1021.0 0.0
27/02:00pm 11.1 7.0 4.1 62 3.1 NNW 15 32 8 17 1021.0 1021.0 0.0
27/01:30pm 10.9 7.6 4.4 64 2.9 N 11 13 6 7 1021.2 1021.2 0.0
27/01:00pm 10.6 6.7 3.6 62 3.1 N 13 15 7 8 1021.3 1021.3 0.0
27/12:30pm 10.3 5.9 4.9 69 2.4 N 17 19 9 10 1021.9 1021.9 0.0
27/12:00pm 9.6 6.5 3.8 67 2.5 N 9 11 5 6 1022.4 1022.4 0.0
27/11:30am 9.5 5.8 2.6 62 2.9 N 11 13 6 7 1022.9 1023.0 0.0
27/11:00am 8.5 6.0 4.5 76 1.8 N 7 11 4 6 1023.6 1023.7 0.0
27/10:30am 8.4 5.5 4.6 77 1.7 N 9 11 5 6 1023.8 1023.9 0.0
27/10:00am 8.0 4.7 4.8 80 1.4 N 11 13 6 7 1023.8 1023.9 0.0
27/09:30am 7.8 4.9 4.6 80 1.4 N 9 11 5 6 1023.8 1023.9 0.0
27/09:00am 7.4 4.2 4.9 84 1.1 N 11 13 6 7 1023.8 1023.9 0.0
27/08:30am 6.1 2.2 3.4 83 1.1 W 13 17 7 9 1023.8 1023.9 0.0
27/08:00am 6.0 2.9 3.5 84 1.0 NW 9 13 5 7 1023.5 1023.6 0.0
27/07:30am 6.8 3.8 4.3 84 1.1 WSW 9 11 5 6 1023.4 1023.5 0.0
27/07:00am 5.9 2.3 2.9 81 1.2 WNW 11 15 6 8 1023.4 1023.5 0.0
27/06:30am 5.9 2.7 3.2 83 1.1 WNW 9 11 5 6 1023.6 1023.7 0.0
27/06:00am 5.5 2.3 3.2 85 0.9 WNW 9 13 5 7 1023.4 1023.5 0.0
27/05:30am 5.0 2.3 2.7 85 0.9 NNE 6 7 3 4 1023.1 1023.2 0.0
27/05:00am 6.0 3.9 3.7 85 1.0 NNE 4 6 2 3 1023.0 1023.1 0.0
27/04:30am 7.0 4.0 4.1 82 1.2 NNW 9 11 5 6 1023.1 1023.2 0.0
27/04:00am 6.1 3.2 2.7 79 1.4 WNW 7 9 4 5 1023.0 1023.1 0.0
27/03:30am 6.4 4.2 3.4 81 1.3 NNW 4 6 2 3 1023.0 1023.1 0.0
27/03:00am 7.8 5.9 2.9 71 2.1 W 2 4 1 2 1022.8 1022.9 0.0
27/02:30am 6.8 3.6 3.2 78 1.5 W 9 11 5 6 1022.9 1023.0 0.0
27/02:00am 6.3 1.9 2.8 78 1.4 WNW 15 17 8 9 1022.9 1023.0 0.0
27/01:30am 7.3 2.3 3.4 76 1.7 NW 19 19 10 10 1022.8 1022.9 0.0
27/01:00am 7.3 2.2 3.2 75 1.7 WNW 19 20 10 11 1022.9 1023.0 0.0
27/12:30am 7.2 2.0 3.3 76 1.6 NW 20 24 11 13 1022.9 1023.0 0.0
27/12:00am 7.1 2.5 3.5 78 1.5 WNW 17 19 9 10 1023.2 1023.3 0.0
 
Date/Time
EST
Temp
°C
App
Temp
°C
Dew
Point
°C
Rel
Hum
%
Delta-T
°C
Wind Press
QNH
hPa
Press
MSL
hPa
Rain since
9am
mm
Dir  Spd
km/h
Gust
km/h
Spd
kts
Gust
kts
26/11:30pm 7.2 2.2 3.4 77 1.6 WNW 19 22 10 12 1023.3 1023.4 0.0
26/11:00pm 7.2 3.2 3.1 75 1.7 NW 13 15 7 8 1023.3 1023.4 0.0
26/10:30pm 7.5 3.9 5.0 84 1.1 NNW 13 15 7 8 1023.1 1023.2 0.0
26/10:00pm 7.7 3.3 4.7 81 1.3 NNW 17 20 9 11 1023.0 1023.1 0.0
26/09:30pm 7.3 3.2 4.4 82 1.3 NW 15 17 8 9 1022.9 1023.0 0.0
26/09:00pm 7.9 5.0 4.7 80 1.4 NW 9 11 5 6 1022.8 1022.9 0.0
26/08:30pm 8.1 5.6 5.0 81 1.4 WNW 7 9 4 5 1022.8 1022.9 0.0
26/08:00pm 8.8 6.5 4.6 75 1.9 WSW 6 9 3 5 1022.4 1022.4 0.0
26/07:30pm 9.0 6.9 5.6 79 1.5 W 6 7 3 4 1022.1 1022.1 0.0
26/07:00pm 9.2 6.7 4.8 74 2.0 WSW 7 9 4 5 1022.0 1022.0 0.0
26/06:30pm 9.7 7.5 5.1 73 2.1 W 6 7 3 4 1021.7 1021.7 0.0
26/06:00pm 9.6 6.3 4.6 71 2.2 SW 11 13 6 7 1021.2 1021.2 0.0
26/05:30pm 10.4 6.1 3.4 62 3.1 WSW 15 20 8 11 1020.7 1020.7 0.0
26/05:00pm 10.8 7.4 3.8 62 3.1 WSW 11 19 6 10 1020.3 1020.3 0.0
26/04:30pm 10.8 8.2 4.3 64 2.9 SSW 7 11 4 6 1020.0 1020.0 0.0
26/04:00pm 12.1 9.9 3.1 54 4.0 WSW 4 4 2 2 1019.8 1019.8 0.0
26/03:30pm 11.6 9.2 4.3 61 3.3 SSW 6 9 3 5 1019.6 1019.6 0.0
26/03:00pm 11.7 8.6 3.5 57 3.6 SW 9 17 5 9 1019.4 1019.4 0.0
26/02:30pm 11.7 7.5 3.7 58 3.6 SW 15 22 8 12 1019.2 1019.2 0.0
26/02:00pm 11.6 5.9 2.9 55 3.8 WSW 22 28 12 15 1018.9 1018.9 0.0
26/01:30pm 11.7 9.4 3.0 55 3.8 SW 4 7 2 4 1018.9 1018.9 0.0
26/01:00pm 12.0 8.8 3.3 55 3.8 W 9 15 5 8 1018.8 1018.8 0.0
26/12:30pm 11.7 6.7 3.7 58 3.6 W 19 24 10 13 1018.7 1018.7 0.0
26/12:00pm 11.5 7.2 3.3 57 3.6 W 15 24 8 13 1018.8 1018.8 0.0
26/11:30am 11.0 5.4 3.5 60 3.3 WSW 22 33 12 18 1018.8 1018.8 0.0
26/11:00am 10.5 7.0 3.5 62 3.1 WNW 11 15 6 8 1018.9 1018.9 0.0
26/10:30am 9.9 5.6 3.2 63 2.9 W 15 20 8 11 1018.7 1018.7 0.0
26/10:00am 9.2 4.5 3.4 67 2.5 W 17 20 9 11 1018.3 1018.3 0.0
26/09:30am 8.3 3.0 2.8 68 2.3 W 20 24 11 13 1017.9 1017.9 0.0
26/09:00am 7.2 2.9 3.1 75 1.7 WNW 15 20 8 11 1017.6 1017.6 0.0
26/08:30am 7.6 2.9 2.9 72 2.0 WNW 17 20 9 11 1017.1 1017.1 0.0
26/08:00am 7.0 3.4 2.9 75 1.7 WNW 11 13 6 7 1016.8 1016.8 0.0
26/07:30am 7.2 2.7 2.3 71 2.0 W 15 19 8 10 1016.4 1016.4 0.0
26/07:00am 7.0 2.8 1.9 70 2.1 WNW 13 17 7 9 1016.0 1016.0 0.0
26/06:30am 6.9 2.4 2.2 72 1.9 WNW 15 17 8 9 1015.6 1015.6 0.0
26/06:00am 7.6 2.8 2.5 70 2.1 W 17 22 9 12 1015.1 1015.1 0.0
26/05:30am 7.8 3.3 2.3 68 2.3 W 15 19 8 10 1014.7 1014.7 0.0
26/05:00am 8.0 3.2 2.5 68 2.3 WSW 17 24 9 13 1014.2 1014.2 0.0
26/04:30am 8.3 2.5 2.3 66 2.5 WSW 22 30 12 16 1013.8 1013.8 0.0
26/04:00am 8.3 2.5 2.5 67 2.4 WSW 22 28 12 15 1013.3 1013.3 0.0
26/03:30am 8.4 2.7 2.6 67 2.4 WSW 22 26 12 14 1013.0 1013.0 0.0
26/03:00am 8.5 2.0 2.7 67 2.4 WSW 26 32 14 17 1012.7 1012.7 0.0
26/02:30am 8.7 2.1 2.1 63 2.8 SW 26 33 14 18 1012.6 1012.6 0.0
26/02:00am 8.6 2.5 2.6 66 2.5 WSW 24 32 13 17 1012.1 1012.1 0.0
26/01:30am 8.7 3.6 2.9 67 2.5 WSW 19 24 10 13 1011.7 1011.7 0.0
26/01:00am 8.6 1.8 3.0 68 2.4 WSW 28 35 15 19 1011.1 1011.1 0.0
26/12:30am 9.1 2.3 2.9 65 2.6 WSW 28 37 15 20 1010.8 1010.8 0.0
26/12:00am 8.9 3.6 3.1 67 2.5 WSW 20 28 11 15 1010.5 1010.5 0.0
 
Date/Time
EST
Temp
°C
App
Temp
°C
Dew
Point
°C
Rel
Hum
%
Delta-T
°C
Wind Press
QNH
hPa
Press
MSL
hPa
Rain since
9am
mm
Dir  Spd
km/h
Gust
km/h
Spd
kts
Gust
kts
25/11:30pm 9.1 3.4 3.1 66 2.6 WSW 22 32 12 17 1010.1 1010.1 0.0
25/11:00pm 9.3 4.1 3.3 66 2.6 WSW 20 28 11 15 1009.7 1009.7 0.0
25/10:30pm 9.3 4.7 3.5 67 2.5 WSW 17 24 9 13 1009.4 1009.4 0.0

Latest Capital City Observations: Canberra | Sydney | Melbourne | Brisbane | Adelaide | Perth | Hobart | Darwin

Other Formats:

Comma delimited format used in spreadsheet applications
http://www.bom.gov.au/fwo/IDT60901/IDT60901.95988.axf

JavaScript Object Notation format (JSON) in row-major order
http://www.bom.gov.au/fwo/IDT60901/IDT60901.95988.json